createdAt,value
2022-11-19T00:00:13.487Z,85.60
2022-11-19T00:01:13.542Z,85.50
2022-11-19T00:02:13.504Z,85.80
2022-11-19T00:03:13.676Z,85.70
2022-11-19T00:04:13.743Z,85.70
2022-11-19T00:05:13.685Z,85.60
2022-11-19T00:06:13.548Z,85.70
2022-11-19T00:07:13.497Z,85.50
2022-11-19T00:08:13.361Z,85.30
2022-11-19T00:09:13.250Z,85.00
2022-11-19T00:10:13.136Z,84.70
2022-11-19T00:11:13.393Z,84.90
2022-11-19T00:12:13.383Z,84.70
2022-11-19T00:13:13.673Z,84.70
2022-11-19T00:14:13.739Z,84.70
2022-11-19T00:15:13.833Z,85.00
2022-11-19T00:16:14.117Z,85.20
2022-11-19T00:17:13.010Z,85.20
2022-11-19T00:18:12.975Z,85.00
2022-11-19T00:19:12.994Z,85.00
2022-11-19T00:20:12.900Z,84.90
2022-11-19T00:21:12.721Z,84.10
2022-11-19T00:22:13.793Z,84.10
2022-11-19T00:23:13.833Z,84.30
2022-11-19T00:24:13.771Z,84.20
2022-11-19T00:25:13.773Z,84.30
2022-11-19T00:26:13.873Z,84.30
2022-11-19T00:27:13.840Z,84.80
2022-11-19T00:28:13.863Z,84.70
2022-11-19T00:29:17.916Z,84.50
2022-11-19T00:30:32.650Z,84.30
2022-11-19T00:31:13.986Z,84.00
2022-11-19T00:32:13.362Z,83.80
2022-11-19T00:33:13.302Z,83.80
2022-11-19T00:34:13.442Z,84.10
2022-11-19T00:35:13.531Z,83.80
2022-11-19T00:36:13.702Z,84.40
2022-11-19T00:37:13.742Z,84.30
2022-11-19T00:38:14.863Z,84.50
2022-11-19T00:39:13.838Z,83.90
2022-11-19T00:40:14.126Z,84.00
2022-11-19T00:41:13.044Z,84.00
2022-11-19T00:42:13.407Z,83.50
2022-11-19T00:43:13.390Z,83.70
2022-11-19T00:44:13.495Z,83.50
2022-11-19T00:45:13.454Z,83.30
2022-11-19T00:46:13.429Z,83.60
2022-11-19T00:47:13.711Z,83.20
2022-11-19T00:48:14.907Z,83.00
2022-11-19T00:49:18.623Z,83.90
2022-11-19T00:50:13.871Z,84.50
2022-11-19T00:51:13.793Z,84.10
2022-11-19T00:52:13.723Z,83.60
2022-11-19T00:53:13.655Z,83.40
2022-11-19T00:54:13.907Z,83.30
2022-11-19T00:55:12.773Z,84.20
2022-11-19T00:56:13.700Z,84.40
2022-11-19T00:57:13.842Z,84.00
2022-11-19T00:58:13.744Z,83.20
2022-11-19T00:59:13.836Z,83.20
2022-11-19T01:00:13.876Z,83.60
2022-11-19T01:01:13.871Z,83.70
2022-11-19T01:02:13.517Z,83.90
2022-11-19T01:03:13.608Z,83.90
2022-11-19T01:04:13.848Z,83.80
2022-11-19T01:05:13.739Z,83.80
2022-11-19T01:06:17.824Z,84.10
2022-11-19T01:07:18.274Z,83.60
2022-11-19T01:08:13.308Z,84.40
2022-11-19T01:09:18.813Z,85.10
2022-11-19T01:10:13.287Z,84.80
2022-11-19T01:11:13.436Z,84.70
2022-11-19T01:12:13.557Z,85.00
2022-11-19T01:13:13.965Z,85.10
2022-11-19T01:14:12.934Z,84.40
2022-11-19T01:15:13.244Z,84.80
2022-11-19T01:16:13.099Z,84.60
2022-11-19T01:17:13.426Z,84.80
2022-11-19T01:18:13.454Z,85.00
2022-11-19T01:19:13.596Z,85.30
2022-11-19T01:20:14.048Z,84.60
2022-11-19T01:21:12.982Z,84.30
2022-11-19T01:22:14.099Z,84.10
2022-11-19T01:23:13.031Z,84.30
2022-11-19T01:24:13.111Z,83.60
2022-11-19T01:25:13.099Z,83.20
2022-11-19T01:26:13.035Z,83.50
2022-11-19T01:27:12.943Z,84.20
2022-11-19T01:28:12.923Z,84.50
2022-11-19T01:29:12.842Z,85.30
2022-11-19T01:30:13.859Z,85.10
2022-11-19T01:31:14.006Z,85.00
2022-11-19T01:32:12.912Z,84.80
2022-11-19T01:33:13.849Z,85.20
2022-11-19T01:34:13.719Z,85.50
2022-11-19T01:35:13.568Z,85.80
2022-11-19T01:36:13.419Z,85.90
2022-11-19T01:37:13.306Z,85.20
2022-11-19T01:38:13.273Z,85.30
2022-11-19T01:39:13.182Z,84.90
2022-11-19T01:40:13.082Z,84.50
2022-11-19T01:41:13.059Z,85.20
2022-11-19T01:42:13.072Z,85.30
2022-11-19T01:43:13.103Z,85.60
2022-11-19T01:44:13.234Z,85.30
2022-11-19T01:45:13.109Z,85.50
2022-11-19T01:46:13.251Z,84.30
2022-11-19T01:47:13.407Z,84.40
2022-11-19T01:48:13.247Z,84.30
2022-11-19T01:49:13.547Z,85.30
2022-11-19T01:50:13.586Z,85.30
2022-11-19T01:51:13.642Z,85.40
2022-11-19T01:52:14.143Z,85.30
2022-11-19T01:53:13.327Z,85.00
2022-11-19T01:54:13.340Z,85.00
2022-11-19T01:55:13.491Z,84.40
2022-11-19T01:56:13.418Z,84.80
2022-11-19T01:57:13.329Z,84.70
2022-11-19T01:58:13.252Z,85.10
2022-11-19T01:59:13.558Z,85.50
2022-11-19T02:00:13.426Z,85.20
2022-11-19T02:01:13.705Z,85.20
2022-11-19T02:02:13.734Z,84.50
2022-11-19T02:03:13.561Z,84.60
2022-11-19T02:04:13.395Z,84.30
2022-11-19T02:05:13.316Z,84.60
2022-11-19T02:06:13.199Z,84.70
2022-11-19T02:07:13.525Z,84.90
2022-11-19T02:08:13.670Z,85.20
2022-11-19T02:09:13.667Z,85.60
2022-11-19T02:10:13.571Z,85.40
2022-11-19T02:11:13.611Z,85.10
2022-11-19T02:12:14.088Z,85.10
2022-11-19T02:13:13.410Z,85.00
2022-11-19T02:14:13.418Z,84.90
2022-11-19T02:15:13.370Z,84.50
2022-11-19T02:16:13.346Z,85.00
2022-11-19T02:17:13.399Z,85.40
2022-11-19T02:18:13.407Z,85.80
2022-11-19T02:19:13.322Z,85.60
2022-11-19T02:20:13.507Z,85.90
2022-11-19T02:21:13.299Z,86.10
2022-11-19T02:22:13.180Z,86.20
2022-11-19T02:23:13.029Z,85.80
2022-11-19T02:24:13.118Z,85.50
2022-11-19T02:25:13.120Z,85.50
2022-11-19T02:26:14.201Z,84.90
2022-11-19T02:27:13.722Z,85.30
2022-11-19T02:28:13.560Z,85.60
2022-11-19T02:29:13.432Z,85.70
2022-11-19T02:30:13.513Z,86.00
2022-11-19T02:31:13.532Z,85.70
2022-11-19T02:32:13.338Z,86.00
2022-11-19T02:33:13.447Z,86.30
2022-11-19T02:34:13.571Z,86.00
2022-11-19T02:35:13.479Z,85.70
2022-11-19T02:36:13.431Z,85.30
2022-11-19T02:37:13.343Z,85.20
2022-11-19T02:38:13.244Z,85.40
2022-11-19T02:39:13.151Z,85.20
2022-11-19T02:40:13.059Z,85.10
2022-11-19T02:41:12.993Z,85.20
2022-11-19T02:42:12.917Z,85.40
2022-11-19T02:43:12.712Z,85.20
2022-11-19T02:44:13.673Z,85.20
2022-11-19T02:45:13.941Z,84.30
2022-11-19T02:46:12.900Z,84.10
2022-11-19T02:47:12.917Z,84.40
2022-11-19T02:48:13.248Z,84.40
2022-11-19T02:49:13.054Z,85.20
2022-11-19T02:50:12.925Z,85.40
2022-11-19T02:51:13.090Z,85.30
2022-11-19T02:52:12.948Z,85.40
2022-11-19T02:53:12.987Z,85.60
2022-11-19T02:54:12.904Z,85.50
2022-11-19T02:55:12.841Z,85.80
2022-11-19T02:56:14.044Z,85.30
2022-11-19T02:57:12.977Z,85.80
2022-11-19T02:58:13.008Z,85.90
2022-11-19T02:59:13.175Z,85.80
2022-11-19T03:00:13.084Z,85.50
2022-11-19T03:01:13.024Z,85.90
2022-11-19T03:02:12.925Z,86.00
2022-11-19T03:03:13.254Z,86.10
2022-11-19T03:04:13.096Z,86.00
2022-11-19T03:05:12.993Z,86.00
2022-11-19T03:06:12.849Z,85.70
2022-11-19T03:07:13.690Z,86.00
2022-11-19T03:08:13.509Z,86.10
2022-11-19T03:09:13.763Z,86.10
2022-11-19T03:10:13.678Z,86.30
2022-11-19T03:11:13.610Z,85.90
2022-11-19T03:12:13.818Z,86.10
2022-11-19T03:13:14.110Z,86.60
2022-11-19T03:14:13.237Z,86.40
2022-11-19T03:15:13.168Z,86.30
2022-11-19T03:16:12.975Z,85.90
2022-11-19T03:17:12.773Z,86.40
2022-11-19T03:18:13.992Z,86.70
2022-11-19T03:19:12.879Z,86.70
2022-11-19T03:20:13.787Z,86.30
2022-11-19T03:21:13.870Z,85.50
2022-11-19T03:22:13.849Z,86.00
2022-11-19T03:23:14.181Z,86.20
2022-11-19T03:24:13.114Z,85.80
2022-11-19T03:25:13.208Z,86.10
2022-11-19T03:26:13.130Z,86.50
2022-11-19T03:27:13.397Z,86.30
2022-11-19T03:28:13.279Z,86.10
2022-11-19T03:29:13.363Z,85.50
2022-11-19T03:30:13.352Z,85.60
2022-11-19T03:31:13.509Z,85.90
2022-11-19T03:32:13.740Z,86.10
2022-11-19T03:33:13.959Z,85.90
2022-11-19T03:34:13.478Z,85.70
2022-11-19T03:35:13.549Z,85.60
2022-11-19T03:36:13.494Z,85.70
2022-11-19T03:37:13.708Z,86.00
2022-11-19T03:38:13.701Z,85.90
2022-11-19T03:39:13.835Z,85.80
2022-11-19T03:40:13.816Z,86.00
2022-11-19T03:41:13.869Z,86.40
2022-11-19T03:42:14.151Z,86.20
2022-11-19T03:43:13.476Z,86.30
2022-11-19T03:44:13.758Z,86.50
2022-11-19T03:45:13.802Z,86.20
2022-11-19T03:46:13.674Z,85.90
2022-11-19T03:47:13.672Z,85.90
2022-11-19T03:48:15.093Z,85.70
2022-11-19T03:49:13.053Z,86.00
2022-11-19T03:50:12.967Z,85.60
2022-11-19T03:51:12.928Z,85.30
2022-11-19T03:52:12.738Z,85.50
2022-11-19T03:53:13.590Z,85.60
2022-11-19T03:54:13.516Z,85.70
2022-11-19T03:55:13.502Z,85.80
2022-11-19T03:56:13.385Z,85.30
2022-11-19T03:57:13.335Z,84.70
2022-11-19T03:58:13.581Z,85.00
2022-11-19T03:59:13.805Z,85.40
2022-11-19T04:00:13.730Z,84.60
2022-11-19T04:01:13.721Z,84.80
2022-11-19T04:02:14.008Z,85.30
2022-11-19T04:03:13.474Z,84.90
2022-11-19T04:04:13.781Z,85.30
2022-11-19T04:05:13.884Z,85.30
2022-11-19T04:06:13.925Z,85.10
2022-11-19T04:07:13.792Z,85.20
2022-11-19T04:08:13.695Z,85.20
2022-11-19T04:09:13.696Z,85.20
2022-11-19T04:10:13.551Z,85.10
2022-11-19T04:11:14.598Z,85.00
2022-11-19T04:12:13.455Z,85.20
2022-11-19T04:13:13.355Z,85.30
2022-11-19T04:14:13.230Z,85.10
2022-11-19T04:15:13.174Z,85.10
2022-11-19T04:16:13.075Z,84.60
2022-11-19T04:17:13.010Z,84.30
2022-11-19T04:18:12.950Z,84.20
2022-11-19T04:19:12.843Z,83.80
2022-11-19T04:20:13.766Z,84.30
2022-11-19T04:21:13.824Z,84.30
2022-11-19T04:22:13.746Z,83.80
2022-11-19T04:23:14.879Z,83.80
2022-11-19T04:24:14.566Z,83.50
2022-11-19T04:25:13.596Z,83.50
2022-11-19T04:26:13.797Z,83.70
2022-11-19T04:27:13.949Z,83.80
2022-11-19T04:28:12.871Z,83.80
2022-11-19T04:29:13.832Z,83.60
2022-11-19T04:30:13.807Z,83.50
2022-11-19T04:31:17.851Z,83.30
2022-11-19T04:32:13.317Z,83.20
2022-11-19T04:33:13.335Z,82.90
2022-11-19T04:34:13.215Z,83.00
2022-11-19T04:35:13.245Z,83.30
2022-11-19T04:36:13.148Z,82.90
2022-11-19T04:37:13.195Z,82.80
2022-11-19T04:38:13.265Z,83.20
2022-11-19T04:39:13.350Z,83.20
2022-11-19T04:40:13.176Z,83.10
2022-11-19T04:41:13.153Z,82.80
2022-11-19T04:42:13.294Z,82.90
2022-11-19T04:43:13.363Z,82.50
2022-11-19T04:44:13.483Z,82.60
2022-11-19T04:45:13.479Z,82.70
2022-11-19T04:46:13.523Z,82.80
2022-11-19T04:47:13.687Z,83.30
2022-11-19T04:48:13.590Z,83.10
2022-11-19T04:49:13.370Z,83.30
2022-11-19T04:50:13.583Z,83.20
2022-11-19T04:51:13.488Z,83.50
2022-11-19T04:52:13.380Z,82.60
2022-11-19T04:53:13.255Z,82.80
2022-11-19T04:54:13.205Z,82.40
2022-11-19T04:55:13.110Z,82.50
2022-11-19T04:56:13.060Z,82.10
2022-11-19T04:57:12.999Z,82.80
2022-11-19T04:58:12.892Z,82.70
2022-11-19T04:59:12.932Z,83.10
2022-11-19T05:00:13.143Z,82.90
2022-11-19T05:01:13.118Z,83.00
2022-11-19T05:02:13.051Z,83.40
2022-11-19T05:03:13.042Z,83.30
2022-11-19T05:04:13.107Z,83.40
2022-11-19T05:05:13.265Z,83.40
2022-11-19T05:06:13.324Z,83.30
2022-11-19T05:07:13.356Z,83.40
2022-11-19T05:08:13.716Z,83.70
2022-11-19T05:09:13.502Z,83.80
2022-11-19T05:10:13.407Z,84.10
2022-11-19T05:11:13.315Z,83.80
2022-11-19T05:12:13.216Z,83.70
2022-11-19T05:13:13.247Z,83.90
2022-11-19T05:14:13.135Z,83.40
2022-11-19T05:15:13.270Z,83.10
2022-11-19T05:16:13.078Z,83.00
2022-11-19T05:17:13.171Z,82.80
2022-11-19T05:18:13.445Z,83.20
2022-11-19T05:19:13.352Z,83.40
2022-11-19T05:20:13.347Z,84.20
2022-11-19T05:21:13.382Z,84.00
2022-11-19T05:22:13.709Z,84.00
2022-11-19T05:23:14.002Z,84.10
2022-11-19T05:24:12.942Z,83.50
2022-11-19T05:25:12.924Z,83.80
2022-11-19T05:26:13.067Z,84.30
2022-11-19T05:27:13.000Z,84.60
2022-11-19T05:28:12.936Z,84.60
2022-11-19T05:29:12.973Z,84.90
2022-11-19T05:30:12.883Z,84.80
2022-11-19T05:31:13.878Z,84.40
2022-11-19T05:32:13.893Z,85.00
2022-11-19T05:33:14.293Z,84.50
2022-11-19T05:34:13.360Z,84.90
2022-11-19T05:35:13.276Z,85.10
2022-11-19T05:36:13.839Z,85.30
2022-11-19T05:37:13.873Z,85.20
2022-11-19T05:38:13.856Z,84.70
2022-11-19T05:39:20.289Z,84.40
2022-11-19T05:40:13.980Z,84.40
2022-11-19T05:41:12.902Z,84.70
2022-11-19T05:42:12.799Z,84.50
2022-11-19T05:43:13.781Z,85.00
2022-11-19T05:44:13.808Z,85.00
2022-11-19T05:45:13.916Z,85.00
2022-11-19T05:46:12.776Z,85.20
2022-11-19T05:47:13.684Z,85.30
2022-11-19T05:48:13.675Z,85.10
2022-11-19T05:49:13.836Z,85.00
2022-11-19T05:50:13.597Z,84.50
2022-11-19T05:51:13.682Z,84.70
2022-11-19T05:52:13.707Z,84.90
2022-11-19T05:53:13.622Z,84.50
2022-11-19T05:54:13.946Z,84.40
2022-11-19T05:55:13.010Z,84.50
2022-11-19T05:56:13.060Z,84.70
2022-11-19T05:57:12.966Z,84.30
2022-11-19T05:58:12.965Z,84.20
2022-11-19T05:59:12.938Z,84.10
2022-11-19T06:00:12.995Z,84.50
2022-11-19T06:01:13.002Z,84.80
2022-11-19T06:02:13.508Z,84.90
2022-11-19T06:03:13.873Z,85.10
2022-11-19T06:04:12.852Z,84.90
2022-11-19T06:05:13.966Z,85.20
2022-11-19T06:06:12.986Z,84.50
2022-11-19T06:07:13.114Z,84.30
2022-11-19T06:08:13.013Z,84.10
2022-11-19T06:09:12.976Z,84.40
2022-11-19T06:10:13.124Z,84.30
2022-11-19T06:11:13.093Z,83.90
2022-11-19T06:12:13.097Z,84.10
2022-11-19T06:13:13.031Z,84.00
2022-11-19T06:14:13.008Z,84.10
2022-11-19T06:15:51.334Z,84.20
2022-11-19T06:16:17.664Z,83.90
2022-11-19T06:17:13.850Z,83.60
2022-11-19T06:18:13.851Z,83.40
2022-11-19T06:19:13.937Z,82.70
2022-11-19T06:20:18.287Z,83.00
2022-11-19T06:21:13.307Z,82.70
2022-11-19T06:22:34.106Z,83.00
2022-11-19T06:23:15.026Z,82.40
2022-11-19T06:24:12.978Z,82.40
2022-11-19T06:25:12.913Z,82.00
2022-11-19T06:26:12.798Z,82.40
2022-11-19T06:27:38.068Z,81.80
2022-11-19T06:28:13.387Z,81.40
2022-11-19T06:29:33.778Z,81.60
2022-11-19T06:31:13.391Z,81.90
2022-11-19T06:32:32.553Z,81.40
2022-11-19T06:34:17.007Z,81.40
2022-11-19T06:35:14.526Z,81.10
2022-11-19T06:36:13.523Z,81.00
2022-11-19T06:37:34.414Z,80.80
2022-11-19T06:38:16.904Z,81.20
2022-11-19T06:39:12.848Z,80.90
2022-11-19T06:40:14.146Z,80.60
2022-11-19T06:41:13.137Z,80.30
2022-11-19T06:42:18.467Z,80.60
2022-11-19T06:43:13.418Z,80.70
2022-11-19T06:44:13.591Z,80.60
2022-11-19T06:45:33.743Z,80.60
2022-11-19T06:46:13.800Z,80.80
2022-11-19T06:47:13.651Z,80.50
2022-11-19T06:48:13.555Z,80.60
2022-11-19T06:49:19.697Z,81.30
2022-11-19T06:50:13.267Z,80.80
2022-11-19T06:51:13.264Z,80.70
2022-11-19T06:53:13.383Z,79.80
2022-11-19T06:54:13.330Z,80.00
2022-11-19T06:55:13.350Z,80.60
2022-11-19T06:56:13.220Z,80.30
2022-11-19T06:57:13.138Z,80.20
2022-11-19T06:59:12.966Z,80.20
2022-11-19T07:00:13.182Z,80.00
2022-11-19T07:01:13.367Z,80.20
2022-11-19T07:02:14.498Z,80.60
2022-11-19T07:03:12.926Z,80.50
2022-11-19T07:04:13.059Z,79.80
2022-11-19T07:05:13.116Z,79.90
2022-11-19T07:06:12.960Z,80.20
2022-11-19T07:07:12.822Z,80.00
2022-11-19T07:08:13.967Z,80.20
2022-11-19T07:09:13.155Z,80.40
2022-11-19T07:10:13.124Z,80.40
2022-11-19T07:11:13.130Z,80.10
2022-11-19T07:12:13.081Z,79.50
2022-11-19T07:13:13.704Z,79.40
2022-11-19T07:14:13.605Z,79.10
2022-11-19T07:15:13.439Z,79.30
2022-11-19T07:16:13.555Z,79.50
2022-11-19T07:17:33.729Z,79.30
2022-11-19T07:18:13.669Z,79.30
2022-11-19T07:19:13.740Z,79.70
2022-11-19T07:20:13.735Z,79.50
2022-11-19T07:21:30.792Z,80.10
2022-11-19T07:22:45.318Z,79.90
2022-11-19T07:23:13.972Z,79.70
2022-11-19T07:24:13.371Z,79.30
2022-11-19T07:25:13.270Z,79.60
2022-11-19T07:26:54.973Z,79.80
2022-11-19T07:27:13.061Z,79.70
2022-11-19T07:28:18.031Z,80.00
2022-11-19T07:29:13.038Z,79.90
2022-11-19T07:30:12.944Z,79.90
2022-11-19T07:31:23.089Z,79.50
2022-11-19T07:32:17.993Z,79.80
2022-11-19T07:33:39.305Z,79.90
2022-11-19T07:34:14.541Z,79.90
2022-11-19T07:35:13.520Z,79.50
2022-11-19T07:36:18.126Z,79.40
2022-11-19T07:37:13.801Z,79.30
2022-11-19T07:38:13.807Z,80.00
2022-11-19T07:39:13.767Z,79.50
2022-11-19T07:40:16.832Z,78.70
2022-11-19T07:41:13.970Z,78.40
2022-11-19T07:42:12.849Z,79.10
2022-11-19T07:43:14.033Z,79.00
2022-11-19T07:44:12.956Z,78.70
2022-11-19T07:45:13.013Z,78.30
2022-11-19T07:46:12.901Z,78.60
2022-11-19T07:47:12.823Z,79.00
2022-11-19T07:48:13.700Z,79.30
2022-11-19T07:49:13.575Z,79.00
2022-11-19T07:50:13.485Z,78.80
2022-11-19T07:51:13.350Z,79.30
2022-11-19T07:52:13.450Z,79.00
2022-11-19T07:54:14.877Z,78.20
2022-11-19T07:55:18.500Z,78.10
2022-11-19T07:56:33.475Z,78.50
2022-11-19T07:57:30.237Z,77.80
2022-11-19T07:58:23.533Z,77.80
2022-11-19T07:59:13.565Z,78.00
2022-11-19T08:00:33.027Z,78.10
2022-11-19T08:01:33.152Z,78.50
2022-11-19T08:02:18.815Z,78.50
2022-11-19T08:03:13.188Z,78.80
2022-11-19T08:04:36.484Z,78.50
2022-11-19T08:05:13.374Z,78.40
2022-11-19T08:07:14.217Z,77.80
2022-11-19T08:08:13.380Z,77.30
2022-11-19T08:09:13.267Z,77.30
2022-11-19T08:10:13.199Z,77.50
2022-11-19T08:11:34.052Z,77.00
2022-11-19T08:12:21.482Z,77.00
2022-11-19T08:13:13.640Z,77.10
2022-11-19T08:14:13.590Z,77.50
2022-11-19T08:15:28.784Z,77.40
2022-11-19T08:16:13.983Z,77.50
2022-11-19T08:17:12.817Z,77.30
2022-11-19T08:18:27.208Z,77.10
2022-11-19T08:19:14.671Z,77.60
2022-11-19T08:20:13.743Z,76.20
2022-11-19T08:21:14.016Z,76.40
2022-11-19T08:22:13.159Z,77.00
2022-11-19T08:23:13.324Z,77.00
2022-11-19T08:24:13.678Z,76.30
2022-11-19T08:25:13.977Z,77.10
2022-11-19T08:26:13.166Z,77.00
2022-11-19T08:27:13.539Z,76.60
2022-11-19T08:28:13.512Z,76.10
2022-11-19T08:29:16.482Z,75.90
2022-11-19T08:30:13.631Z,75.20
2022-11-19T08:31:13.855Z,75.40
2022-11-19T08:32:24.304Z,76.00
2022-11-19T08:33:13.603Z,75.80
2022-11-19T08:34:13.425Z,75.80
2022-11-19T08:35:13.613Z,75.70
2022-11-19T08:36:13.614Z,76.00
2022-11-19T08:37:14.146Z,76.10
2022-11-19T08:39:37.057Z,75.40
2022-11-19T08:40:13.270Z,75.40
2022-11-19T08:42:14.668Z,75.30
2022-11-19T08:43:24.151Z,74.70
2022-11-19T08:44:13.369Z,74.30
2022-11-19T08:46:13.493Z,73.90
2022-11-19T08:47:13.499Z,74.00
2022-11-19T08:48:13.682Z,74.30
2022-11-19T08:49:27.479Z,75.20
2022-11-19T08:50:13.354Z,73.90
2022-11-19T08:51:45.901Z,73.90
2022-11-19T08:52:13.508Z,73.00
2022-11-19T08:53:13.716Z,72.80
2022-11-19T08:54:13.614Z,72.30
2022-11-19T08:55:14.316Z,71.90
2022-11-19T08:56:17.910Z,72.70
2022-11-19T08:57:13.521Z,72.80
2022-11-19T08:58:13.792Z,73.20
2022-11-19T08:59:13.883Z,72.90
2022-11-19T09:00:12.761Z,72.30
2022-11-19T09:01:14.294Z,72.40
2022-11-19T09:02:13.159Z,72.20
2022-11-19T09:03:13.090Z,72.60
2022-11-19T09:04:12.941Z,72.60
2022-11-19T09:05:14.724Z,72.50
2022-11-19T09:06:51.272Z,72.40
2022-11-19T09:07:13.230Z,72.50
2022-11-19T09:08:14.034Z,73.10
2022-11-19T09:09:13.387Z,73.30
2022-11-19T09:10:13.338Z,73.60
2022-11-19T09:11:13.245Z,73.40
2022-11-19T09:12:13.078Z,72.80
2022-11-19T09:13:12.988Z,73.20
2022-11-19T09:14:13.070Z,73.70
2022-11-19T09:15:12.988Z,73.80
2022-11-19T09:16:13.194Z,73.10
2022-11-19T09:17:13.137Z,72.70
2022-11-19T09:18:13.142Z,72.90
2022-11-19T09:19:13.410Z,73.50
2022-11-19T09:20:13.629Z,73.40
2022-11-19T09:21:13.807Z,73.10
2022-11-19T09:22:13.635Z,72.40
2022-11-19T09:23:13.560Z,72.80
2022-11-19T09:24:13.421Z,72.40
2022-11-19T09:25:13.428Z,72.10
2022-11-19T09:26:13.773Z,72.10
2022-11-19T09:27:14.125Z,72.90
2022-11-19T09:28:13.565Z,72.90
2022-11-19T09:29:13.556Z,73.40
2022-11-19T09:30:13.530Z,73.20
2022-11-19T09:31:13.442Z,73.00
2022-11-19T09:32:13.575Z,72.90
2022-11-19T09:33:13.575Z,72.70
2022-11-19T09:34:13.778Z,72.80
2022-11-19T09:35:13.793Z,72.50
2022-11-19T09:36:13.624Z,72.50
2022-11-19T09:37:13.401Z,71.60
2022-11-19T09:38:13.295Z,71.50
2022-11-19T09:39:13.551Z,71.60
2022-11-19T09:40:13.465Z,71.30
2022-11-19T09:41:13.305Z,71.40
2022-11-19T09:42:13.607Z,71.70
2022-11-19T09:43:15.628Z,72.20
2022-11-19T09:44:13.732Z,71.30
2022-11-19T09:45:13.604Z,70.90
2022-11-19T09:46:13.655Z,70.60
2022-11-19T09:47:13.568Z,70.00
2022-11-19T09:48:13.370Z,70.70
2022-11-19T09:49:13.200Z,70.70
2022-11-19T09:50:12.993Z,71.10
2022-11-19T09:51:13.051Z,71.00
2022-11-19T09:52:12.958Z,71.70
2022-11-19T09:53:12.924Z,71.60
2022-11-19T09:54:12.860Z,71.50
2022-11-19T09:55:13.955Z,71.60
2022-11-19T09:56:13.182Z,70.60
2022-11-19T09:57:13.217Z,69.90
2022-11-19T09:58:13.430Z,69.90
2022-11-19T09:59:13.411Z,69.30
2022-11-19T10:00:13.414Z,69.90
2022-11-19T10:01:13.497Z,69.70
2022-11-19T10:02:13.538Z,70.20
2022-11-19T10:03:13.663Z,70.00
2022-11-19T10:04:14.013Z,71.00
2022-11-19T10:05:12.998Z,70.90
2022-11-19T10:06:13.116Z,70.60
2022-11-19T10:07:13.262Z,70.40
2022-11-19T10:08:13.441Z,70.40
2022-11-19T10:09:13.358Z,70.40
2022-11-19T10:10:13.334Z,70.40
2022-11-19T10:11:13.225Z,70.00
2022-11-19T10:12:13.058Z,69.50
2022-11-19T10:13:13.085Z,69.50
2022-11-19T10:14:13.386Z,70.30
2022-11-19T10:15:13.407Z,69.60
2022-11-19T10:16:13.533Z,70.70
2022-11-19T10:17:13.623Z,70.20
2022-11-19T10:18:13.513Z,69.40
2022-11-19T10:19:13.648Z,69.00
2022-11-19T10:20:14.058Z,69.20
2022-11-19T10:21:12.979Z,69.50
2022-11-19T10:22:12.808Z,69.70
2022-11-19T10:23:13.802Z,69.50
2022-11-19T10:24:13.769Z,69.50
2022-11-19T10:25:13.718Z,70.20
2022-11-19T10:26:13.760Z,69.00
2022-11-19T10:27:13.547Z,69.20
2022-11-19T10:28:13.469Z,68.90
2022-11-19T10:29:13.441Z,69.40
2022-11-19T10:30:13.376Z,69.50
2022-11-19T10:31:13.318Z,69.70
2022-11-19T10:32:13.415Z,68.70
2022-11-19T10:33:13.514Z,69.00
2022-11-19T10:34:13.341Z,68.50
2022-11-19T10:35:13.238Z,68.60
2022-11-19T10:36:13.386Z,68.90
2022-11-19T10:37:13.591Z,69.10
2022-11-19T10:38:13.580Z,68.30
2022-11-19T10:39:13.828Z,68.20
2022-11-19T10:40:14.123Z,67.60
2022-11-19T10:41:12.981Z,66.30
2022-11-19T10:42:13.036Z,66.50
2022-11-19T10:43:13.354Z,66.50
2022-11-19T10:44:13.311Z,66.80
2022-11-19T10:45:13.288Z,66.70
2022-11-19T10:46:13.348Z,66.00
2022-11-19T10:47:13.252Z,66.20
2022-11-19T10:48:13.178Z,65.80
2022-11-19T10:49:13.031Z,66.90
2022-11-19T10:50:12.957Z,67.20
2022-11-19T10:51:13.036Z,67.20
2022-11-19T10:52:12.940Z,67.00
2022-11-19T10:53:12.771Z,67.00
2022-11-19T10:54:13.747Z,65.30
2022-11-19T10:55:13.624Z,65.50
2022-11-19T10:56:13.543Z,64.40
2022-11-19T10:57:13.434Z,62.70
2022-11-19T10:58:13.385Z,62.10
2022-11-19T10:59:13.442Z,62.70
2022-11-19T11:00:13.358Z,63.70
2022-11-19T11:01:13.405Z,60.30
2022-11-19T11:02:13.373Z,58.50
2022-11-19T11:03:13.271Z,58.30
2022-11-19T11:04:13.511Z,58.10
2022-11-19T11:05:13.525Z,59.40
2022-11-19T11:06:13.644Z,60.30
2022-11-19T11:07:18.740Z,60.90
2022-11-19T11:08:13.830Z,62.30
2022-11-19T11:09:13.640Z,61.80
2022-11-19T11:10:13.524Z,62.70
2022-11-19T11:11:13.464Z,63.20
2022-11-19T11:12:13.366Z,63.10
2022-11-19T11:13:13.302Z,63.80
2022-11-19T11:14:13.254Z,63.00
2022-11-19T11:15:13.282Z,63.10
2022-11-19T11:16:13.586Z,63.40
2022-11-19T11:17:13.782Z,63.60
2022-11-19T11:18:13.992Z,63.50
2022-11-19T11:19:13.374Z,62.00
2022-11-19T11:20:13.360Z,61.60
2022-11-19T11:21:13.337Z,61.40
2022-11-19T11:22:13.375Z,59.20
2022-11-19T11:23:13.416Z,57.40
2022-11-19T11:24:13.486Z,57.30
2022-11-19T11:25:13.360Z,57.20
2022-11-19T11:26:13.285Z,59.40
2022-11-19T11:27:13.346Z,60.90
2022-11-19T11:28:13.925Z,62.20
2022-11-19T11:29:12.934Z,63.30
2022-11-19T11:30:12.848Z,64.50
2022-11-19T11:31:13.693Z,63.10
2022-11-19T11:32:13.787Z,63.40
2022-11-19T11:33:13.726Z,64.20
2022-11-19T11:34:13.573Z,63.80
2022-11-19T11:35:19.514Z,63.10
2022-11-19T11:36:13.473Z,63.30
2022-11-19T11:37:13.397Z,64.10
2022-11-19T11:38:13.306Z,63.20
2022-11-19T11:39:13.189Z,63.40
2022-11-19T11:40:13.110Z,62.40
2022-11-19T11:42:02.402Z,62.90
2022-11-19T11:42:17.549Z,62.40
2022-11-19T11:43:13.044Z,63.70
2022-11-19T11:44:13.019Z,63.60
2022-11-19T11:45:12.969Z,63.90
2022-11-19T11:46:13.075Z,62.90
2022-11-19T11:47:13.077Z,62.40
2022-11-19T11:48:13.382Z,62.20
2022-11-19T11:49:13.784Z,63.60
2022-11-19T11:50:13.881Z,62.50
2022-11-19T11:51:13.279Z,62.60
2022-11-19T11:52:13.271Z,63.90
2022-11-19T11:53:13.172Z,63.80
2022-11-19T11:54:17.826Z,63.40
2022-11-19T11:55:13.230Z,63.40
2022-11-19T11:56:13.515Z,63.60
2022-11-19T11:57:13.529Z,62.80
2022-11-19T11:58:13.799Z,63.50
2022-11-19T11:59:13.689Z,63.90
2022-11-19T12:00:13.748Z,63.80
2022-11-19T12:01:15.894Z,63.80
2022-11-19T12:02:14.070Z,63.30
2022-11-19T12:03:13.097Z,63.00
2022-11-19T12:04:13.103Z,63.90
2022-11-19T12:05:13.234Z,63.70
2022-11-19T12:06:13.096Z,63.80
2022-11-19T12:07:13.120Z,64.00
2022-11-19T12:08:13.388Z,63.30
2022-11-19T12:09:13.677Z,63.00
2022-11-19T12:10:14.070Z,62.90
2022-11-19T12:11:13.457Z,63.10
2022-11-19T12:12:13.392Z,62.60
2022-11-19T12:13:13.687Z,62.90
2022-11-19T12:14:13.654Z,63.50
2022-11-19T12:15:13.709Z,63.40
2022-11-19T12:16:13.651Z,63.50
2022-11-19T12:17:13.910Z,63.50
2022-11-19T12:18:13.436Z,63.30
2022-11-19T12:19:13.664Z,63.60
2022-11-19T12:20:13.721Z,62.30
2022-11-19T12:21:13.987Z,63.00
2022-11-19T12:22:13.019Z,63.10
2022-11-19T12:23:13.151Z,63.40
2022-11-19T12:24:13.245Z,63.70
2022-11-19T12:25:13.352Z,63.50
2022-11-19T12:26:13.746Z,63.20
2022-11-19T12:27:13.839Z,62.70
2022-11-19T12:28:14.055Z,62.30
2022-11-19T12:29:13.240Z,63.10
2022-11-19T12:30:13.158Z,62.30
2022-11-19T12:31:13.384Z,62.60
2022-11-19T12:32:13.461Z,62.70
2022-11-19T12:33:13.560Z,62.90
2022-11-19T12:34:13.805Z,63.00
2022-11-19T12:35:13.741Z,63.00
2022-11-19T12:36:14.261Z,62.90
2022-11-19T12:37:13.433Z,63.10
2022-11-19T12:38:13.745Z,62.80
2022-11-19T12:39:13.811Z,62.40
2022-11-19T12:40:14.337Z,63.00
2022-11-19T12:41:13.763Z,62.60
2022-11-19T12:42:13.965Z,62.80
2022-11-19T12:43:12.777Z,62.90
2022-11-19T12:44:13.721Z,62.50
2022-11-19T12:45:13.712Z,62.80
2022-11-19T12:46:14.034Z,63.30
2022-11-19T12:47:14.581Z,63.40
2022-11-19T12:48:13.527Z,63.20
2022-11-19T12:49:13.582Z,63.60
2022-11-19T12:50:13.467Z,63.90
2022-11-19T12:51:13.455Z,64.00
2022-11-19T12:52:13.361Z,63.80
2022-11-19T12:53:13.601Z,63.60
2022-11-19T12:54:16.377Z,62.60
2022-11-19T12:55:13.645Z,62.30
2022-11-19T12:56:13.538Z,62.80
2022-11-19T12:57:13.644Z,62.40
2022-11-19T12:58:14.014Z,62.10
2022-11-19T12:59:13.175Z,62.70
2022-11-19T13:00:13.083Z,62.30
2022-11-19T13:01:13.318Z,62.00